sensor_id;sensor_type;location;lat;lon;timestamp;P1;durP1;ratioP1;P2;durP2;ratioP2
19971;SDS011;10147;16.402;102.848;2022-12-18T00:00:53;55.88;;;36.08;;
19971;SDS011;10147;16.402;102.848;2022-12-18T00:03:23;77.63;;;67.28;;
19971;SDS011;10147;16.402;102.848;2022-12-18T00:05:55;58.70;;;36.88;;
19971;SDS011;10147;16.402;102.848;2022-12-18T00:08:26;59.55;;;36.30;;
19971;SDS011;10147;16.402;102.848;2022-12-18T00:11:02;74.05;;;37.80;;
19971;SDS011;10147;16.402;102.848;2022-12-18T00:13:34;58.25;;;36.67;;
19971;SDS011;10147;16.402;102.848;2022-12-18T00:16:06;59.67;;;37.38;;
19971;SDS011;10147;16.402;102.848;2022-12-18T00:18:39;59.85;;;38.30;;
19971;SDS011;10147;16.402;102.848;2022-12-18T00:21:11;68.78;;;37.20;;
19971;SDS011;10147;16.402;102.848;2022-12-18T00:23:42;61.88;;;36.92;;
19971;SDS011;10147;16.402;102.848;2022-12-18T00:26:15;64.35;;;37.45;;
19971;SDS011;10147;16.402;102.848;2022-12-18T00:28:51;58.95;;;38.92;;
19971;SDS011;10147;16.402;102.848;2022-12-18T00:31:23;63.17;;;37.55;;
19971;SDS011;10147;16.402;102.848;2022-12-18T00:33:55;61.75;;;38.20;;
19971;SDS011;10147;16.402;102.848;2022-12-18T00:36:28;56.53;;;35.83;;
19971;SDS011;10147;16.402;102.848;2022-12-18T00:39:02;63.38;;;36.80;;
19971;SDS011;10147;16.402;102.848;2022-12-18T00:41:33;54.95;;;36.05;;
19971;SDS011;10147;16.402;102.848;2022-12-18T00:44:24;61.00;;;36.45;;
19971;SDS011;10147;16.402;102.848;2022-12-18T00:46:54;57.65;;;35.65;;
19971;SDS011;10147;16.402;102.848;2022-12-18T00:49:25;56.03;;;37.05;;
19971;SDS011;10147;16.402;102.848;2022-12-18T00:51:56;58.55;;;35.72;;
19971;SDS011;10147;16.402;102.848;2022-12-18T00:54:27;54.67;;;36.08;;
19971;SDS011;10147;16.402;102.848;2022-12-18T00:56:58;58.00;;;36.75;;
19971;SDS011;10147;16.402;102.848;2022-12-18T00:59:28;59.28;;;36.70;;
19971;SDS011;10147;16.402;102.848;2022-12-18T01:01:59;56.63;;;35.65;;
19971;SDS011;10147;16.402;102.848;2022-12-18T01:04:33;55.72;;;36.83;;
19971;SDS011;10147;16.402;102.848;2022-12-18T01:07:04;49.65;;;36.47;;
19971;SDS011;10147;16.402;102.848;2022-12-18T01:09:35;55.67;;;34.97;;
19971;SDS011;10147;16.402;102.848;2022-12-18T01:12:06;59.08;;;35.05;;
19971;SDS011;10147;16.402;102.848;2022-12-18T01:14:37;52.28;;;35.28;;
19971;SDS011;10147;16.402;102.848;2022-12-18T01:17:08;61.38;;;35.83;;
19971;SDS011;10147;16.402;102.848;2022-12-18T01:19:39;57.88;;;33.60;;
19971;SDS011;10147;16.402;102.848;2022-12-18T01:22:09;49.80;;;33.78;;
19971;SDS011;10147;16.402;102.848;2022-12-18T01:24:40;49.80;;;31.88;;
19971;SDS011;10147;16.402;102.848;2022-12-18T01:27:11;58.25;;;33.40;;
19971;SDS011;10147;16.402;102.848;2022-12-18T01:29:42;49.95;;;32.35;;
19971;SDS011;10147;16.402;102.848;2022-12-18T01:32:12;55.60;;;31.75;;
19971;SDS011;10147;16.402;102.848;2022-12-18T01:34:43;47.65;;;32.38;;
19971;SDS011;10147;16.402;102.848;2022-12-18T01:37:14;45.22;;;33.28;;
19971;SDS011;10147;16.402;102.848;2022-12-18T01:39:44;45.25;;;32.25;;
19971;SDS011;10147;16.402;102.848;2022-12-18T01:42:15;50.65;;;30.70;;
19971;SDS011;10147;16.402;102.848;2022-12-18T01:48:05;50.80;;;31.33;;
19971;SDS011;10147;16.402;102.848;2022-12-18T01:50:38;50.30;;;30.27;;
19971;SDS011;10147;16.402;102.848;2022-12-18T01:53:17;50.55;;;30.73;;
19971;SDS011;10147;16.402;102.848;2022-12-18T01:55:52;45.03;;;30.40;;
19971;SDS011;10147;16.402;102.848;2022-12-18T01:58:35;46.28;;;29.40;;
19971;SDS011;10147;16.402;102.848;2022-12-18T02:01:22;46.53;;;29.67;;
19971;SDS011;10147;16.402;102.848;2022-12-18T02:03:54;46.80;;;28.65;;
19971;SDS011;10147;16.402;102.848;2022-12-18T02:06:29;42.53;;;27.88;;
19971;SDS011;10147;16.402;102.848;2022-12-18T02:09:07;46.28;;;29.27;;
19971;SDS011;10147;16.402;102.848;2022-12-18T02:14:55;41.00;;;28.83;;
19971;SDS011;10147;16.402;102.848;2022-12-18T02:17:56;40.40;;;29.92;;
19971;SDS011;10147;16.402;102.848;2022-12-18T02:20:56;45.00;;;27.05;;
19971;SDS011;10147;16.402;102.848;2022-12-18T02:23:56;44.33;;;27.25;;
19971;SDS011;10147;16.402;102.848;2022-12-18T02:26:47;43.03;;;26.05;;
19971;SDS011;10147;16.402;102.848;2022-12-18T02:29:25;37.15;;;25.17;;
19971;SDS011;10147;16.402;102.848;2022-12-18T02:32:02;33.90;;;24.27;;
19971;SDS011;10147;16.402;102.848;2022-12-18T02:34:38;36.90;;;24.50;;
19971;SDS011;10147;16.402;102.848;2022-12-18T02:37:14;41.10;;;25.08;;
19971;SDS011;10147;16.402;102.848;2022-12-18T02:39:49;35.42;;;22.85;;
19971;SDS011;10147;16.402;102.848;2022-12-18T02:42:22;32.95;;;21.95;;
19971;SDS011;10147;16.402;102.848;2022-12-18T02:44:53;41.92;;;21.77;;
19971;SDS011;10147;16.402;102.848;2022-12-18T02:47:27;40.35;;;24.50;;
19971;SDS011;10147;16.402;102.848;2022-12-18T02:50:08;36.83;;;24.10;;
19971;SDS011;10147;16.402;102.848;2022-12-18T02:59:04;38.58;;;22.42;;
19971;SDS011;10147;16.402;102.848;2022-12-18T03:01:54;38.53;;;22.40;;
19971;SDS011;10147;16.402;102.848;2022-12-18T03:04:52;38.47;;;23.27;;
19971;SDS011;10147;16.402;102.848;2022-12-18T03:07:51;38.00;;;22.55;;
19971;SDS011;10147;16.402;102.848;2022-12-18T03:10:38;39.88;;;31.75;;
19971;SDS011;10147;16.402;102.848;2022-12-18T03:13:17;43.45;;;31.27;;
19971;SDS011;10147;16.402;102.848;2022-12-18T03:16:07;35.30;;;24.33;;
19971;SDS011;10147;16.402;102.848;2022-12-18T03:18:47;30.75;;;22.85;;
19971;SDS011;10147;16.402;102.848;2022-12-18T03:21:28;26.10;;;20.67;;
19971;SDS011;10147;16.402;102.848;2022-12-18T03:24:03;33.70;;;20.67;;
19971;SDS011;10147;16.402;102.848;2022-12-18T03:26:37;35.75;;;21.27;;
19971;SDS011;10147;16.402;102.848;2022-12-18T03:29:16;38.33;;;22.13;;
19971;SDS011;10147;16.402;102.848;2022-12-18T03:34:59;35.15;;;22.23;;
19971;SDS011;10147;16.402;102.848;2022-12-18T03:37:36;32.15;;;21.27;;
19971;SDS011;10147;16.402;102.848;2022-12-18T03:40:08;35.25;;;21.52;;
19971;SDS011;10147;16.402;102.848;2022-12-18T03:45:34;36.35;;;20.08;;
19971;SDS011;10147;16.402;102.848;2022-12-18T03:48:14;33.85;;;21.25;;
19971;SDS011;10147;16.402;102.848;2022-12-18T03:51:11;30.83;;;20.52;;
19971;SDS011;10147;16.402;102.848;2022-12-18T03:53:53;31.67;;;20.13;;
19971;SDS011;10147;16.402;102.848;2022-12-18T03:56:37;32.53;;;20.33;;
19971;SDS011;10147;16.402;102.848;2022-12-18T03:59:12;32.35;;;20.83;;
19971;SDS011;10147;16.402;102.848;2022-12-18T04:01:46;40.50;;;20.90;;
19971;SDS011;10147;16.402;102.848;2022-12-18T04:04:19;30.73;;;20.83;;
19971;SDS011;10147;16.402;102.848;2022-12-18T04:06:51;32.60;;;20.65;;
19971;SDS011;10147;16.402;102.848;2022-12-18T04:09:23;27.85;;;21.13;;
19971;SDS011;10147;16.402;102.848;2022-12-18T04:11:55;32.97;;;20.85;;
19971;SDS011;10147;16.402;102.848;2022-12-18T04:14:26;38.15;;;21.05;;
19971;SDS011;10147;16.402;102.848;2022-12-18T04:16:58;30.80;;;20.33;;
19971;SDS011;10147;16.402;102.848;2022-12-18T04:19:30;31.27;;;20.17;;
19971;SDS011;10147;16.402;102.848;2022-12-18T04:22:03;32.85;;;20.75;;
19971;SDS011;10147;16.402;102.848;2022-12-18T04:24:40;34.30;;;20.27;;
19971;SDS011;10147;16.402;102.848;2022-12-18T04:27:19;39.15;;;19.77;;
19971;SDS011;10147;16.402;102.848;2022-12-18T04:29:50;31.63;;;20.48;;
19971;SDS011;10147;16.402;102.848;2022-12-18T04:32:21;35.05;;;20.88;;
19971;SDS011;10147;16.402;102.848;2022-12-18T04:34:52;33.15;;;19.15;;
19971;SDS011;10147;16.402;102.848;2022-12-18T04:37:23;30.08;;;20.02;;
19971;SDS011;10147;16.402;102.848;2022-12-18T04:39:53;26.15;;;19.15;;
19971;SDS011;10147;16.402;102.848;2022-12-18T04:42:32;32.00;;;20.33;;
19971;SDS011;10147;16.402;102.848;2022-12-18T04:45:02;34.55;;;19.90;;
19971;SDS011;10147;16.402;102.848;2022-12-18T04:47:33;29.88;;;19.23;;
19971;SDS011;10147;16.402;102.848;2022-12-18T04:50:04;28.83;;;17.95;;
19971;SDS011;10147;16.402;102.848;2022-12-18T04:52:35;30.52;;;18.85;;
19971;SDS011;10147;16.402;102.848;2022-12-18T04:55:06;29.35;;;19.15;;
19971;SDS011;10147;16.402;102.848;2022-12-18T04:57:37;29.80;;;19.15;;
19971;SDS011;10147;16.402;102.848;2022-12-18T05:00:08;34.35;;;20.40;;
19971;SDS011;10147;16.402;102.848;2022-12-18T05:02:39;33.47;;;19.02;;
19971;SDS011;10147;16.402;102.848;2022-12-18T05:05:10;32.90;;;19.50;;
19971;SDS011;10147;16.402;102.848;2022-12-18T05:07:40;31.10;;;19.23;;
19971;SDS011;10147;16.402;102.848;2022-12-18T05:10:12;30.73;;;19.00;;
19971;SDS011;10147;16.402;102.848;2022-12-18T05:12:42;36.60;;;19.73;;
19971;SDS011;10147;16.402;102.848;2022-12-18T05:15:33;29.40;;;18.63;;
19971;SDS011;10147;16.402;102.848;2022-12-18T05:18:04;34.70;;;18.30;;
19971;SDS011;10147;16.402;102.848;2022-12-18T05:20:34;34.35;;;18.65;;
19971;SDS011;10147;16.402;102.848;2022-12-18T05:23:04;32.10;;;18.85;;
19971;SDS011;10147;16.402;102.848;2022-12-18T05:25:34;33.90;;;20.20;;
19971;SDS011;10147;16.402;102.848;2022-12-18T05:28:04;25.17;;;18.35;;
19971;SDS011;10147;16.402;102.848;2022-12-18T05:30:35;27.58;;;18.58;;
19971;SDS011;10147;16.402;102.848;2022-12-18T05:33:05;27.65;;;17.90;;
19971;SDS011;10147;16.402;102.848;2022-12-18T05:35:35;26.98;;;18.02;;
19971;SDS011;10147;16.402;102.848;2022-12-18T05:38:05;28.15;;;17.85;;
19971;SDS011;10147;16.402;102.848;2022-12-18T05:40:36;33.22;;;18.15;;
19971;SDS011;10147;16.402;102.848;2022-12-18T05:43:06;30.48;;;17.60;;
19971;SDS011;10147;16.402;102.848;2022-12-18T05:45:38;35.10;;;17.48;;
19971;SDS011;10147;16.402;102.848;2022-12-18T05:48:09;31.55;;;17.23;;
19971;SDS011;10147;16.402;102.848;2022-12-18T05:50:44;34.40;;;17.42;;
19971;SDS011;10147;16.402;102.848;2022-12-18T05:53:16;30.17;;;16.48;;
19971;SDS011;10147;16.402;102.848;2022-12-18T05:55:49;26.73;;;17.30;;
19971;SDS011;10147;16.402;102.848;2022-12-18T05:58:19;28.15;;;17.15;;
19971;SDS011;10147;16.402;102.848;2022-12-18T06:00:49;32.90;;;17.58;;
19971;SDS011;10147;16.402;102.848;2022-12-18T06:03:19;35.53;;;31.45;;
19971;SDS011;10147;16.402;102.848;2022-12-18T06:05:54;40.50;;;33.22;;
19971;SDS011;10147;16.402;102.848;2022-12-18T06:08:25;23.38;;;16.60;;
19971;SDS011;10147;16.402;102.848;2022-12-18T06:10:55;32.47;;;23.67;;
19971;SDS011;10147;16.402;102.848;2022-12-18T06:13:26;42.55;;;36.17;;
19971;SDS011;10147;16.402;102.848;2022-12-18T06:15:56;33.30;;;17.42;;
19971;SDS011;10147;16.402;102.848;2022-12-18T06:18:27;27.58;;;16.95;;
19971;SDS011;10147;16.402;102.848;2022-12-18T06:20:57;31.38;;;15.70;;
19971;SDS011;10147;16.402;102.848;2022-12-18T06:23:29;35.70;;;16.63;;
19971;SDS011;10147;16.402;102.848;2022-12-18T06:26:02;24.83;;;15.95;;
19971;SDS011;10147;16.402;102.848;2022-12-18T06:28:34;35.13;;;16.70;;
19971;SDS011;10147;16.402;102.848;2022-12-18T06:31:05;32.05;;;15.68;;
19971;SDS011;10147;16.402;102.848;2022-12-18T06:33:36;33.17;;;16.55;;
19971;SDS011;10147;16.402;102.848;2022-12-18T06:36:10;33.67;;;16.52;;
19971;SDS011;10147;16.402;102.848;2022-12-18T06:38:43;29.38;;;16.10;;
19971;SDS011;10147;16.402;102.848;2022-12-18T06:41:14;32.03;;;16.63;;
19971;SDS011;10147;16.402;102.848;2022-12-18T06:43:46;26.90;;;15.90;;
19971;SDS011;10147;16.402;102.848;2022-12-18T06:46:17;26.40;;;15.90;;
19971;SDS011;10147;16.402;102.848;2022-12-18T06:48:48;30.27;;;16.27;;
19971;SDS011;10147;16.402;102.848;2022-12-18T06:51:20;27.42;;;16.45;;
19971;SDS011;10147;16.402;102.848;2022-12-18T06:53:52;29.25;;;15.32;;
19971;SDS011;10147;16.402;102.848;2022-12-18T06:56:22;31.73;;;17.27;;
19971;SDS011;10147;16.402;102.848;2022-12-18T06:58:52;23.98;;;15.40;;
19971;SDS011;10147;16.402;102.848;2022-12-18T07:01:23;29.50;;;15.50;;
19971;SDS011;10147;16.402;102.848;2022-12-18T07:03:54;32.17;;;15.93;;
19971;SDS011;10147;16.402;102.848;2022-12-18T07:06:25;27.83;;;15.98;;
19971;SDS011;10147;16.402;102.848;2022-12-18T07:08:56;29.35;;;16.83;;
19971;SDS011;10147;16.402;102.848;2022-12-18T07:11:27;29.20;;;16.42;;
19971;SDS011;10147;16.402;102.848;2022-12-18T07:13:58;29.95;;;16.05;;
19971;SDS011;10147;16.402;102.848;2022-12-18T07:16:29;23.23;;;15.88;;
19971;SDS011;10147;16.402;102.848;2022-12-18T07:18:59;26.23;;;14.68;;
19971;SDS011;10147;16.402;102.848;2022-12-18T07:21:30;22.40;;;14.45;;
19971;SDS011;10147;16.402;102.848;2022-12-18T07:24:00;26.77;;;15.10;;
19971;SDS011;10147;16.402;102.848;2022-12-18T07:26:30;24.67;;;15.60;;
19971;SDS011;10147;16.402;102.848;2022-12-18T07:29:00;33.95;;;15.13;;
19971;SDS011;10147;16.402;102.848;2022-12-18T07:31:32;28.05;;;16.00;;
19971;SDS011;10147;16.402;102.848;2022-12-18T07:34:02;26.13;;;15.70;;
19971;SDS011;10147;16.402;102.848;2022-12-18T07:36:33;26.63;;;15.57;;
19971;SDS011;10147;16.402;102.848;2022-12-18T07:39:03;25.05;;;14.82;;
19971;SDS011;10147;16.402;102.848;2022-12-18T07:41:34;26.25;;;15.05;;
19971;SDS011;10147;16.402;102.848;2022-12-18T07:44:10;25.55;;;15.00;;
19971;SDS011;10147;16.402;102.848;2022-12-18T07:46:41;24.17;;;15.50;;
19971;SDS011;10147;16.402;102.848;2022-12-18T07:49:11;31.13;;;15.93;;
19971;SDS011;10147;16.402;102.848;2022-12-18T07:51:42;30.98;;;17.75;;
19971;SDS011;10147;16.402;102.848;2022-12-18T07:54:15;30.15;;;17.73;;
19971;SDS011;10147;16.402;102.848;2022-12-18T07:56:45;30.05;;;17.63;;
19971;SDS011;10147;16.402;102.848;2022-12-18T07:59:16;24.70;;;18.13;;
19971;SDS011;10147;16.402;102.848;2022-12-18T08:01:47;26.27;;;17.63;;
19971;SDS011;10147;16.402;102.848;2022-12-18T08:04:17;22.58;;;17.15;;
19971;SDS011;10147;16.402;102.848;2022-12-18T08:06:48;28.52;;;18.17;;
19971;SDS011;10147;16.402;102.848;2022-12-18T08:09:18;32.40;;;15.43;;
19971;SDS011;10147;16.402;102.848;2022-12-18T08:11:49;32.15;;;17.13;;
19971;SDS011;10147;16.402;102.848;2022-12-18T08:14:19;30.60;;;16.23;;
19971;SDS011;10147;16.402;102.848;2022-12-18T08:16:50;30.08;;;16.23;;
19971;SDS011;10147;16.402;102.848;2022-12-18T08:19:20;30.27;;;16.08;;
19971;SDS011;10147;16.402;102.848;2022-12-18T08:21:51;23.58;;;16.15;;
19971;SDS011;10147;16.402;102.848;2022-12-18T08:24:21;33.22;;;16.88;;
19971;SDS011;10147;16.402;102.848;2022-12-18T08:26:52;29.75;;;16.98;;
19971;SDS011;10147;16.402;102.848;2022-12-18T08:29:42;28.50;;;17.65;;
19971;SDS011;10147;16.402;102.848;2022-12-18T08:32:13;29.90;;;17.45;;
19971;SDS011;10147;16.402;102.848;2022-12-18T08:34:43;28.30;;;15.95;;
19971;SDS011;10147;16.402;102.848;2022-12-18T08:37:14;27.95;;;16.75;;
19971;SDS011;10147;16.402;102.848;2022-12-18T08:39:44;22.85;;;17.20;;
19971;SDS011;10147;16.402;102.848;2022-12-18T08:42:15;26.65;;;16.98;;
19971;SDS011;10147;16.402;102.848;2022-12-18T08:45:05;24.98;;;17.88;;
19971;SDS011;10147;16.402;102.848;2022-12-18T08:47:35;31.70;;;18.55;;
19971;SDS011;10147;16.402;102.848;2022-12-18T08:50:06;39.88;;;35.67;;
19971;SDS011;10147;16.402;102.848;2022-12-18T08:52:39;42.35;;;37.85;;
19971;SDS011;10147;16.402;102.848;2022-12-18T08:55:10;50.65;;;37.70;;
19971;SDS011;10147;16.402;102.848;2022-12-18T08:57:40;44.17;;;38.33;;
19971;SDS011;10147;16.402;102.848;2022-12-18T09:00:11;28.55;;;17.60;;
19971;SDS011;10147;16.402;102.848;2022-12-18T09:02:43;30.85;;;18.60;;
19971;SDS011;10147;16.402;102.848;2022-12-18T09:05:13;35.40;;;20.63;;
19971;SDS011;10147;16.402;102.848;2022-12-18T09:07:43;25.05;;;18.23;;
19971;SDS011;10147;16.402;102.848;2022-12-18T09:10:13;28.05;;;15.98;;
19971;SDS011;10147;16.402;102.848;2022-12-18T09:12:45;35.92;;;18.55;;
19971;SDS011;10147;16.402;102.848;2022-12-18T09:15:15;28.42;;;18.05;;
19971;SDS011;10147;16.402;102.848;2022-12-18T09:17:47;29.30;;;18.40;;
19971;SDS011;10147;16.402;102.848;2022-12-18T09:20:18;35.85;;;23.27;;
19971;SDS011;10147;16.402;102.848;2022-12-18T09:22:49;29.45;;;18.05;;
19971;SDS011;10147;16.402;102.848;2022-12-18T09:25:20;27.50;;;18.00;;
19971;SDS011;10147;16.402;102.848;2022-12-18T09:27:51;27.80;;;16.73;;
19971;SDS011;10147;16.402;102.848;2022-12-18T09:30:21;29.00;;;19.70;;
19971;SDS011;10147;16.402;102.848;2022-12-18T09:32:55;38.40;;;20.83;;
19971;SDS011;10147;16.402;102.848;2022-12-18T09:35:25;28.17;;;18.45;;
19971;SDS011;10147;16.402;102.848;2022-12-18T09:37:57;28.33;;;18.05;;
19971;SDS011;10147;16.402;102.848;2022-12-18T09:40:28;38.15;;;22.35;;
19971;SDS011;10147;16.402;102.848;2022-12-18T09:43:04;31.00;;;20.35;;
19971;SDS011;10147;16.402;102.848;2022-12-18T09:45:40;27.08;;;18.98;;
19971;SDS011;10147;16.402;102.848;2022-12-18T09:48:16;35.05;;;19.13;;
19971;SDS011;10147;16.402;102.848;2022-12-18T09:51:11;34.78;;;19.42;;
19971;SDS011;10147;16.402;102.848;2022-12-18T09:54:06;27.98;;;18.88;;
19971;SDS011;10147;16.402;102.848;2022-12-18T09:56:42;25.85;;;19.98;;
19971;SDS011;10147;16.402;102.848;2022-12-18T09:59:17;31.33;;;19.50;;
19971;SDS011;10147;16.402;102.848;2022-12-18T10:02:01;30.25;;;19.55;;
19971;SDS011;10147;16.402;102.848;2022-12-18T10:04:45;35.70;;;20.67;;
19971;SDS011;10147;16.402;102.848;2022-12-18T10:10:43;31.40;;;20.67;;
19971;SDS011;10147;16.402;102.848;2022-12-18T10:13:30;33.70;;;21.77;;
19971;SDS011;10147;16.402;102.848;2022-12-18T10:16:34;36.90;;;22.65;;
19971;SDS011;10147;16.402;102.848;2022-12-18T10:28:31;160.98;;;99.63;;
19971;SDS011;10147;16.402;102.848;2022-12-18T10:31:06;55.72;;;38.30;;
19971;SDS011;10147;16.402;102.848;2022-12-18T10:33:52;45.63;;;25.50;;
19971;SDS011;10147;16.402;102.848;2022-12-18T10:36:24;45.05;;;28.25;;
19971;SDS011;10147;16.402;102.848;2022-12-18T10:41:49;40.20;;;28.90;;
19971;SDS011;10147;16.402;102.848;2022-12-18T10:44:21;41.33;;;26.80;;
19971;SDS011;10147;16.402;102.848;2022-12-18T10:47:02;44.30;;;23.95;;
19971;SDS011;10147;16.402;102.848;2022-12-18T10:49:38;38.80;;;25.77;;
19971;SDS011;10147;16.402;102.848;2022-12-18T10:52:17;40.55;;;24.92;;
19971;SDS011;10147;16.402;102.848;2022-12-18T10:54:53;41.47;;;25.15;;
19971;SDS011;10147;16.402;102.848;2022-12-18T10:57:32;40.20;;;23.80;;
19971;SDS011;10147;16.402;102.848;2022-12-18T11:02:58;35.35;;;28.23;;
19971;SDS011;10147;16.402;102.848;2022-12-18T11:05:33;33.25;;;23.40;;
19971;SDS011;10147;16.402;102.848;2022-12-18T11:08:10;35.42;;;22.55;;
19971;SDS011;10147;16.402;102.848;2022-12-18T11:10:53;36.97;;;24.27;;
19971;SDS011;10147;16.402;102.848;2022-12-18T11:13:25;37.58;;;25.58;;
19971;SDS011;10147;16.402;102.848;2022-12-18T11:15:58;43.80;;;27.48;;
19971;SDS011;10147;16.402;102.848;2022-12-18T11:18:33;42.20;;;26.55;;
19971;SDS011;10147;16.402;102.848;2022-12-18T11:21:09;44.05;;;27.80;;
19971;SDS011;10147;16.402;102.848;2022-12-18T11:23:46;48.80;;;28.50;;
19971;SDS011;10147;16.402;102.848;2022-12-18T11:26:20;44.30;;;27.70;;
19971;SDS011;10147;16.402;102.848;2022-12-18T11:29:10;45.75;;;29.50;;
19971;SDS011;10147;16.402;102.848;2022-12-18T11:31:47;50.00;;;30.60;;
19971;SDS011;10147;16.402;102.848;2022-12-18T11:34:28;74.32;;;43.90;;
19971;SDS011;10147;16.402;102.848;2022-12-18T11:37:00;98.85;;;55.13;;
19971;SDS011;10147;16.402;102.848;2022-12-18T11:42:24;182.68;;;128.65;;
19971;SDS011;10147;16.402;102.848;2022-12-18T11:47:49;67.07;;;36.22;;
19971;SDS011;10147;16.402;102.848;2022-12-18T11:50:26;58.10;;;40.70;;
19971;SDS011;10147;16.402;102.848;2022-12-18T11:52:58;81.30;;;52.13;;
19971;SDS011;10147;16.402;102.848;2022-12-18T11:55:37;76.20;;;52.92;;
19971;SDS011;10147;16.402;102.848;2022-12-18T11:58:17;84.57;;;56.45;;
19971;SDS011;10147;16.402;102.848;2022-12-18T12:01:05;63.42;;;36.75;;
19971;SDS011;10147;16.402;102.848;2022-12-18T12:03:45;63.55;;;34.78;;
19971;SDS011;10147;16.402;102.848;2022-12-18T12:14:57;75.68;;;43.42;;
19971;SDS011;10147;16.402;102.848;2022-12-18T12:17:36;125.43;;;69.93;;
19971;SDS011;10147;16.402;102.848;2022-12-18T12:20:13;81.97;;;47.75;;
19971;SDS011;10147;16.402;102.848;2022-12-18T12:23:20;90.45;;;49.08;;
19971;SDS011;10147;16.402;102.848;2022-12-18T12:26:15;143.07;;;65.43;;
19971;SDS011;10147;16.402;102.848;2022-12-18T12:29:10;69.07;;;39.72;;
19971;SDS011;10147;16.402;102.848;2022-12-18T12:38:28;95.75;;;48.17;;
19971;SDS011;10147;16.402;102.848;2022-12-18T12:41:05;47.63;;;27.95;;
19971;SDS011;10147;16.402;102.848;2022-12-18T12:43:59;89.47;;;44.05;;
19971;SDS011;10147;16.402;102.848;2022-12-18T12:46:35;100.75;;;51.03;;
19971;SDS011;10147;16.402;102.848;2022-12-18T12:49:15;82.00;;;47.15;;
19971;SDS011;10147;16.402;102.848;2022-12-18T12:52:03;51.38;;;33.53;;
19971;SDS011;10147;16.402;102.848;2022-12-18T12:54:42;45.80;;;27.63;;
19971;SDS011;10147;16.402;102.848;2022-12-18T13:03:03;61.72;;;33.03;;
19971;SDS011;10147;16.402;102.848;2022-12-18T13:05:40;46.72;;;28.45;;
19971;SDS011;10147;16.402;102.848;2022-12-18T13:11:04;42.58;;;27.63;;
19971;SDS011;10147;16.402;102.848;2022-12-18T13:14:22;49.13;;;27.13;;
19971;SDS011;10147;16.402;102.848;2022-12-18T13:17:13;42.35;;;27.13;;
19971;SDS011;10147;16.402;102.848;2022-12-18T13:19:42;41.67;;;27.00;;
19971;SDS011;10147;16.402;102.848;2022-12-18T13:22:24;43.40;;;26.15;;
19971;SDS011;10147;16.402;102.848;2022-12-18T13:24:55;43.45;;;27.00;;
19971;SDS011;10147;16.402;102.848;2022-12-18T13:39:09;39.83;;;23.83;;
19971;SDS011;10147;16.402;102.848;2022-12-18T13:41:39;37.45;;;23.20;;
19971;SDS011;10147;16.402;102.848;2022-12-18T13:44:11;39.88;;;26.27;;
19971;SDS011;10147;16.402;102.848;2022-12-18T13:46:47;35.63;;;24.27;;
19971;SDS011;10147;16.402;102.848;2022-12-18T13:49:36;39.38;;;23.98;;
19971;SDS011;10147;16.402;102.848;2022-12-18T13:52:16;43.15;;;24.50;;
19971;SDS011;10147;16.402;102.848;2022-12-18T13:54:51;36.35;;;23.25;;
19971;SDS011;10147;16.402;102.848;2022-12-18T13:57:27;171.27;;;109.75;;
19971;SDS011;10147;16.402;102.848;2022-12-18T13:59:58;135.88;;;73.25;;
19971;SDS011;10147;16.402;102.848;2022-12-18T14:02:32;44.47;;;27.75;;
19971;SDS011;10147;16.402;102.848;2022-12-18T14:05:03;41.03;;;26.92;;
19971;SDS011;10147;16.402;102.848;2022-12-18T14:07:35;37.33;;;25.38;;
19971;SDS011;10147;16.402;102.848;2022-12-18T14:10:13;33.95;;;25.08;;
19971;SDS011;10147;16.402;102.848;2022-12-18T14:13:06;36.67;;;25.48;;
19971;SDS011;10147;16.402;102.848;2022-12-18T14:15:39;32.95;;;23.80;;
19971;SDS011;10147;16.402;102.848;2022-12-18T14:21:01;44.55;;;33.13;;
19971;SDS011;10147;16.402;102.848;2022-12-18T14:23:34;40.08;;;23.65;;
19971;SDS011;10147;16.402;102.848;2022-12-18T14:28:59;51.30;;;26.45;;
19971;SDS011;10147;16.402;102.848;2022-12-18T14:31:33;40.28;;;25.35;;
19971;SDS011;10147;16.402;102.848;2022-12-18T14:34:03;49.47;;;25.48;;
19971;SDS011;10147;16.402;102.848;2022-12-18T14:36:34;45.95;;;24.95;;
19971;SDS011;10147;16.402;102.848;2022-12-18T14:39:05;38.10;;;23.25;;
19971;SDS011;10147;16.402;102.848;2022-12-18T14:41:35;44.22;;;22.98;;
19971;SDS011;10147;16.402;102.848;2022-12-18T14:44:07;43.13;;;24.02;;
19971;SDS011;10147;16.402;102.848;2022-12-18T14:46:38;35.05;;;21.77;;
19971;SDS011;10147;16.402;102.848;2022-12-18T14:49:20;44.03;;;24.17;;
19971;SDS011;10147;16.402;102.848;2022-12-18T14:51:52;39.50;;;21.27;;
19971;SDS011;10147;16.402;102.848;2022-12-18T14:54:25;33.90;;;19.73;;
19971;SDS011;10147;16.402;102.848;2022-12-18T14:57:00;37.20;;;23.90;;
19971;SDS011;10147;16.402;102.848;2022-12-18T14:59:31;47.03;;;27.02;;
19971;SDS011;10147;16.402;102.848;2022-12-18T15:07:44;32.45;;;21.27;;
19971;SDS011;10147;16.402;102.848;2022-12-18T15:10:16;34.25;;;20.52;;
19971;SDS011;10147;16.402;102.848;2022-12-18T15:12:48;36.40;;;21.10;;
19971;SDS011;10147;16.402;102.848;2022-12-18T15:18:18;34.75;;;19.95;;
19971;SDS011;10147;16.402;102.848;2022-12-18T15:20:56;34.90;;;19.60;;
19971;SDS011;10147;16.402;102.848;2022-12-18T15:23:38;31.83;;;20.50;;
19971;SDS011;10147;16.402;102.848;2022-12-18T15:26:15;33.95;;;20.25;;
19971;SDS011;10147;16.402;102.848;2022-12-18T15:28:56;34.47;;;21.02;;
19971;SDS011;10147;16.402;102.848;2022-12-18T15:31:33;29.58;;;19.23;;
19971;SDS011;10147;16.402;102.848;2022-12-18T15:34:12;32.35;;;19.55;;
19971;SDS011;10147;16.402;102.848;2022-12-18T15:36:43;34.53;;;19.60;;
19971;SDS011;10147;16.402;102.848;2022-12-18T15:39:13;38.67;;;19.88;;
19971;SDS011;10147;16.402;102.848;2022-12-18T15:41:44;30.48;;;18.65;;
19971;SDS011;10147;16.402;102.848;2022-12-18T15:44:35;129.63;;;94.97;;
19971;SDS011;10147;16.402;102.848;2022-12-18T15:47:10;87.45;;;50.78;;
19971;SDS011;10147;16.402;102.848;2022-12-18T15:49:42;48.63;;;31.77;;
19971;SDS011;10147;16.402;102.848;2022-12-18T15:52:12;32.50;;;20.17;;
19971;SDS011;10147;16.402;102.848;2022-12-18T15:54:54;36.13;;;18.55;;
19971;SDS011;10147;16.402;102.848;2022-12-18T15:57:44;30.63;;;17.58;;
19971;SDS011;10147;16.402;102.848;2022-12-18T16:00:14;37.92;;;18.58;;
19971;SDS011;10147;16.402;102.848;2022-12-18T16:02:45;31.38;;;17.77;;
19971;SDS011;10147;16.402;102.848;2022-12-18T16:05:16;31.95;;;18.15;;
19971;SDS011;10147;16.402;102.848;2022-12-18T16:07:48;30.65;;;17.98;;
19971;SDS011;10147;16.402;102.848;2022-12-18T16:10:18;29.10;;;18.08;;
19971;SDS011;10147;16.402;102.848;2022-12-18T16:12:49;34.33;;;19.10;;